createdAt,value
2018-10-12T00:00:41.418Z,22.25
2018-10-12T00:03:13.393Z,22.75
2018-10-12T00:05:49.688Z,22.75
2018-10-12T00:08:30.086Z,21.75
2018-10-12T00:11:00.253Z,22.50
2018-10-12T00:13:31.004Z,23.00
2018-10-12T00:16:00.753Z,22.50
2018-10-12T00:18:32.056Z,23.75
2018-10-12T00:21:01.911Z,22.50
2018-10-12T00:23:31.451Z,22.75
2018-10-12T00:26:01.670Z,20.75
2018-10-12T00:28:31.912Z,22.50
2018-10-12T00:31:02.343Z,22.00
2018-10-12T00:33:32.043Z,22.25
2018-10-12T00:36:01.628Z,22.75
2018-10-12T00:38:31.763Z,20.25
2018-10-12T00:41:01.602Z,22.00
2018-10-12T00:43:31.403Z,19.00
2018-10-12T00:46:08.000Z,20.75
2018-10-12T00:48:37.666Z,22.25
2018-10-12T00:51:07.109Z,20.75
2018-10-12T00:53:36.607Z,19.50
2018-10-12T00:56:06.012Z,20.25
2018-10-12T00:58:36.578Z,20.00
2018-10-12T01:01:07.319Z,21.00
2018-10-12T01:03:37.969Z,20.00
2018-10-12T01:06:07.778Z,20.75
2018-10-12T01:08:37.279Z,21.25
2018-10-12T01:11:06.924Z,20.50
2018-10-12T01:13:36.416Z,18.00
2018-10-12T01:16:06.205Z,22.25
2018-10-12T01:18:36.280Z,18.50
2018-10-12T01:21:06.410Z,19.50
2018-10-12T01:23:36.107Z,18.00
2018-10-12T01:26:05.691Z,19.00
2018-10-12T01:28:38.879Z,21.75
2018-10-12T01:31:10.175Z,20.00
2018-10-12T01:33:40.379Z,19.25
2018-10-12T01:36:10.575Z,20.00
2018-10-12T01:38:40.189Z,19.50
2018-10-12T01:43:48.017Z,19.00
2018-10-12T01:46:18.084Z,17.00
2018-10-12T01:48:47.933Z,18.50
2018-10-12T01:51:17.633Z,21.75
2018-10-12T01:53:47.468Z,19.75
2018-10-12T01:56:17.239Z,18.00
2018-10-12T01:58:47.004Z,18.50
2018-10-12T02:01:16.561Z,18.00
2018-10-12T02:03:51.839Z,18.75
2018-10-12T02:06:21.613Z,18.50
2018-10-12T02:08:51.224Z,17.50
2018-10-12T02:11:23.242Z,16.00
2018-10-12T02:13:53.300Z,16.50
2018-10-12T02:16:23.746Z,19.25
2018-10-12T02:18:53.753Z,19.25
2018-10-12T02:21:24.610Z,16.25
2018-10-12T02:23:54.470Z,19.00
2018-10-12T02:26:24.163Z,18.00
2018-10-12T02:28:54.614Z,16.75
2018-10-12T02:31:24.838Z,17.50
2018-10-12T02:33:54.465Z,17.25
2018-10-12T02:36:24.211Z,17.00
2018-10-12T02:38:53.777Z,16.75
2018-10-12T02:41:28.397Z,17.00
2018-10-12T02:43:58.956Z,17.00
2018-10-12T02:46:28.754Z,16.50
2018-10-12T02:48:59.482Z,16.50
2018-10-12T02:51:29.300Z,16.00
2018-10-12T02:53:58.718Z,16.00
2018-10-12T02:56:28.474Z,17.00
2018-10-12T02:58:58.238Z,15.75
2018-10-12T03:01:33.354Z,17.25
2018-10-12T03:04:02.748Z,17.25
2018-10-12T03:06:32.647Z,15.00
2018-10-12T03:09:02.037Z,15.25
2018-10-12T03:11:32.822Z,17.50
2018-10-12T03:14:02.640Z,15.75
2018-10-12T03:16:33.178Z,16.00
2018-10-12T03:19:03.016Z,16.00
2018-10-12T03:21:33.395Z,13.50
2018-10-12T03:24:03.157Z,14.50
2018-10-12T03:26:33.096Z,14.75
2018-10-12T03:29:03.728Z,14.00
2018-10-12T03:31:34.214Z,14.25
2018-10-12T03:34:03.874Z,12.00
2018-10-12T03:36:33.584Z,14.75
2018-10-12T03:39:03.832Z,15.00
2018-10-12T03:41:33.684Z,16.00
2018-10-12T03:44:03.185Z,12.75
2018-10-12T03:46:33.051Z,13.25
2018-10-12T03:49:02.629Z,12.50
2018-10-12T03:51:32.353Z,13.25
2018-10-12T03:54:02.777Z,12.00
2018-10-12T03:56:32.531Z,13.00
2018-10-12T03:59:04.248Z,12.50
2018-10-12T04:01:34.453Z,12.50
2018-10-12T04:04:04.435Z,12.50
2018-10-12T04:06:36.170Z,12.75
2018-10-12T04:09:07.078Z,13.00
2018-10-12T04:11:38.317Z,13.00
2018-10-12T04:14:08.082Z,14.75
2018-10-12T04:16:37.804Z,13.75
2018-10-12T04:19:12.770Z,12.25
2018-10-12T04:21:42.273Z,11.25
2018-10-12T04:24:12.250Z,13.00
2018-10-12T04:26:41.769Z,12.00
2018-10-12T04:29:11.968Z,12.75
2018-10-12T04:31:42.261Z,11.00
2018-10-12T04:34:14.368Z,11.25
2018-10-12T04:36:43.763Z,12.50
2018-10-12T04:39:26.574Z,11.25
2018-10-12T04:42:01.555Z,12.00
2018-10-12T04:44:31.375Z,12.00
2018-10-12T04:47:01.433Z,12.00
2018-10-12T04:49:31.016Z,12.50
2018-10-12T04:52:02.084Z,12.25
2018-10-12T04:54:34.167Z,11.25
2018-10-12T04:57:03.520Z,12.25
2018-10-12T04:59:33.949Z,13.00
2018-10-12T05:02:04.466Z,11.50
2018-10-12T05:04:35.147Z,12.00
2018-10-12T05:07:04.659Z,13.25
2018-10-12T05:09:34.273Z,13.00
2018-10-12T05:12:03.719Z,12.00
2018-10-12T05:14:33.095Z,14.00
2018-10-12T05:17:03.570Z,11.00
2018-10-12T05:19:34.031Z,13.50
2018-10-12T05:22:05.914Z,11.00
2018-10-12T05:24:35.456Z,12.00
2018-10-12T05:27:05.048Z,11.25
2018-10-12T05:29:34.570Z,12.00
2018-10-12T05:32:04.337Z,11.00
2018-10-12T05:34:37.834Z,12.00
2018-10-12T05:37:08.152Z,14.50
2018-10-12T05:39:38.265Z,13.75
2018-10-12T05:42:08.783Z,12.75
2018-10-12T05:44:42.744Z,14.00
2018-10-12T05:47:14.253Z,11.50
2018-10-12T05:50:15.225Z,11.75
2018-10-12T05:52:49.465Z,12.75
2018-10-12T05:55:18.925Z,12.75
2018-10-12T05:57:53.859Z,11.00
2018-10-12T06:00:33.297Z,13.00
2018-10-12T06:03:04.650Z,11.75
2018-10-12T06:05:34.721Z,14.50
2018-10-12T06:08:05.622Z,13.25
2018-10-12T06:10:45.595Z,13.00
2018-10-12T06:13:15.127Z,14.50
2018-10-12T06:15:46.591Z,14.50
2018-10-12T06:18:16.610Z,13.75
2018-10-12T06:20:46.238Z,14.75
2018-10-12T06:23:19.162Z,13.25
2018-10-12T06:25:49.013Z,15.00
2018-10-12T06:28:18.625Z,12.50
2018-10-12T06:30:50.141Z,14.25
2018-10-12T06:33:20.132Z,13.50
2018-10-12T06:36:00.564Z,14.25
2018-10-12T06:38:32.704Z,13.00
2018-10-12T06:41:04.959Z,13.75
2018-10-12T06:43:35.258Z,13.75
2018-10-12T06:46:12.175Z,13.25
2018-10-12T06:51:24.627Z,12.00
2018-10-12T06:53:54.027Z,12.25
2018-10-12T06:56:25.043Z,14.00
2018-10-12T06:58:54.907Z,13.00
2018-10-12T07:04:01.907Z,13.00
2018-10-12T07:06:32.249Z,12.00
2018-10-12T07:09:03.108Z,11.75
2018-10-12T07:11:32.872Z,13.25
2018-10-12T07:14:03.443Z,11.50
2018-10-12T07:16:36.355Z,13.00
2018-10-12T07:19:06.581Z,11.00
2018-10-12T07:21:36.918Z,11.50
2018-10-12T07:26:32.064Z,11.00
2018-10-12T07:31:28.864Z,11.00
2018-10-12T07:34:01.419Z,8.50
2018-10-12T07:36:32.626Z,10.00
2018-10-12T07:39:02.685Z,11.25
2018-10-12T07:41:34.468Z,11.25
2018-10-12T07:44:06.621Z,11.00
2018-10-12T07:46:36.463Z,9.00
2018-10-12T07:49:06.852Z,11.50
2018-10-12T07:51:36.269Z,10.75
2018-10-12T07:54:09.097Z,9.00
2018-10-12T07:56:39.204Z,9.25
2018-10-12T07:59:11.837Z,8.00
2018-10-12T08:01:49.555Z,7.50
2018-10-12T08:04:23.052Z,7.75
2018-10-12T08:06:59.247Z,8.00
2018-10-12T08:09:35.441Z,7.50
2018-10-12T08:12:23.942Z,9.50
2018-10-12T08:14:56.083Z,8.25
2018-10-12T08:17:29.191Z,6.75
2018-10-12T08:20:00.055Z,8.25
2018-10-12T08:22:30.644Z,8.00
2018-10-12T08:25:08.630Z,7.00
2018-10-12T08:27:40.366Z,7.50
2018-10-12T08:30:10.031Z,7.50
2018-10-12T08:32:40.664Z,7.25
2018-10-12T08:35:12.040Z,8.50
2018-10-12T08:37:41.604Z,8.75
2018-10-12T08:40:11.976Z,8.00
2018-10-12T08:42:42.315Z,8.25
2018-10-12T08:45:17.564Z,8.00
2018-10-12T08:47:48.537Z,8.50
2018-10-12T08:53:04.873Z,6.25
2018-10-12T08:55:34.799Z,8.00
2018-10-12T08:58:04.472Z,8.00
2018-10-12T09:00:35.704Z,7.75
2018-10-12T09:03:06.544Z,8.00
2018-10-12T09:05:36.215Z,8.25
2018-10-12T09:08:08.277Z,7.75
2018-10-12T09:10:41.217Z,6.75
2018-10-12T09:13:14.155Z,6.75
2018-10-12T09:15:44.055Z,7.75
2018-10-12T09:18:13.501Z,7.75
2018-10-12T09:20:43.018Z,7.75
2018-10-12T09:23:13.033Z,7.75
2018-10-12T09:25:43.751Z,7.50
2018-10-12T09:28:15.921Z,6.75
2018-10-12T09:30:45.885Z,7.00
2018-10-12T09:33:16.072Z,7.75
2018-10-12T09:35:47.442Z,7.00
2018-10-12T09:38:26.312Z,6.50
2018-10-12T09:40:55.805Z,7.50
2018-10-12T09:43:28.103Z,5.00
2018-10-12T09:45:57.867Z,6.00
2018-10-12T09:48:28.536Z,6.50
2018-10-12T09:51:00.501Z,6.00
2018-10-12T09:53:37.718Z,5.75
2018-10-12T09:56:10.166Z,6.00
2018-10-12T09:58:40.312Z,7.00
2018-10-12T10:01:16.131Z,6.75
2018-10-12T10:03:50.656Z,6.50
2018-10-12T10:06:22.307Z,6.25
2018-10-12T10:08:52.576Z,7.00
2018-10-12T10:11:22.158Z,5.75
2018-10-12T10:13:52.333Z,6.00
2018-10-12T10:16:22.344Z,7.00
2018-10-12T10:18:55.339Z,4.25
2018-10-12T10:21:26.081Z,7.00
2018-10-12T10:23:57.787Z,6.75
2018-10-12T10:26:38.068Z,8.00
2018-10-12T10:29:10.146Z,6.25
2018-10-12T10:31:40.272Z,4.00
2018-10-12T10:34:11.745Z,5.00
2018-10-12T10:36:45.988Z,6.75
2018-10-12T10:39:19.068Z,5.75
2018-10-12T10:41:50.049Z,5.75
2018-10-12T10:44:20.973Z,4.00
2018-10-12T10:46:53.698Z,3.25
2018-10-12T10:49:27.053Z,6.00
2018-10-12T10:51:57.811Z,4.50
2018-10-12T10:54:29.174Z,5.00
2018-10-12T10:59:32.639Z,4.25
2018-10-12T11:02:02.991Z,5.50
2018-10-12T11:04:34.639Z,4.00
2018-10-12T11:07:06.317Z,4.00
2018-10-12T11:09:39.643Z,4.75
2018-10-12T11:12:13.663Z,5.00
2018-10-12T11:14:43.279Z,4.00
2018-10-12T11:17:18.660Z,4.00
2018-10-12T11:19:48.941Z,4.75
2018-10-12T11:22:19.338Z,4.25
2018-10-12T11:24:49.188Z,4.75
2018-10-12T11:27:27.205Z,4.50
2018-10-12T11:29:57.626Z,4.00
2018-10-12T11:32:29.797Z,5.00
2018-10-12T11:35:01.225Z,3.25
2018-10-12T11:37:34.616Z,4.00
2018-10-12T11:40:05.773Z,4.75
2018-10-12T11:43:42.722Z,3.00
2018-10-12T11:46:14.012Z,5.00
2018-10-12T11:48:47.200Z,4.00
2018-10-12T11:51:21.951Z,4.25
2018-10-12T11:56:59.326Z,4.00
2018-10-12T11:59:32.357Z,5.00
2018-10-12T12:02:07.470Z,4.50
2018-10-12T12:04:37.395Z,3.25
2018-10-12T12:07:07.694Z,4.00
2018-10-12T12:09:39.747Z,3.50
2018-10-12T12:12:21.043Z,3.75
2018-10-12T12:14:51.371Z,4.00
2018-10-12T12:17:22.190Z,4.25
2018-10-12T12:20:00.052Z,4.25
2018-10-12T12:22:30.751Z,4.25
2018-10-12T12:25:05.642Z,3.00
2018-10-12T12:27:37.260Z,3.00
2018-10-12T12:30:21.858Z,4.00
2018-10-12T12:32:53.323Z,3.25
2018-10-12T12:35:23.569Z,3.50
2018-10-12T12:37:54.048Z,3.00
2018-10-12T12:40:28.269Z,3.00
2018-10-12T12:43:01.991Z,3.00
2018-10-12T12:45:32.807Z,3.50
2018-10-12T12:48:07.711Z,3.00
2018-10-12T12:50:40.237Z,4.50
2018-10-12T12:53:14.542Z,3.00
2018-10-12T12:55:46.979Z,4.00
2018-10-12T12:58:21.007Z,3.50
2018-10-12T13:00:52.264Z,4.00
2018-10-12T13:03:24.976Z,4.00
2018-10-12T13:05:54.788Z,2.00
2018-10-12T13:08:26.686Z,3.00
2018-10-12T13:11:01.625Z,2.00
2018-10-12T13:13:33.865Z,3.00
2018-10-12T13:16:14.591Z,4.00
2018-10-12T13:18:47.355Z,3.00
2018-10-12T13:21:16.825Z,4.00
2018-10-12T13:23:52.435Z,3.00
2018-10-12T13:26:36.308Z,2.75
2018-10-12T13:29:06.739Z,3.75
2018-10-12T13:31:38.662Z,4.50
2018-10-12T13:34:10.594Z,3.00
2018-10-12T13:36:44.933Z,2.00
2018-10-12T13:39:16.142Z,6.00
2018-10-12T13:41:52.021Z,4.00
2018-10-12T13:44:26.535Z,4.00
2018-10-12T13:46:57.801Z,4.50
2018-10-12T13:49:27.548Z,3.75
2018-10-12T13:51:57.352Z,3.75
2018-10-12T13:54:29.012Z,3.00
2018-10-12T13:57:03.140Z,4.00
2018-10-12T13:59:35.241Z,4.50
2018-10-12T14:02:07.901Z,4.00
2018-10-12T14:04:37.748Z,4.00
2018-10-12T14:07:10.435Z,3.75
2018-10-12T14:09:44.204Z,3.75
2018-10-12T14:12:18.965Z,3.00
2018-10-12T14:14:49.180Z,2.75
2018-10-12T14:17:20.459Z,3.00
2018-10-12T14:19:51.228Z,5.00
2018-10-12T14:22:22.794Z,3.00
2018-10-12T14:24:55.870Z,5.00
2018-10-12T14:27:27.693Z,3.00
2018-10-12T14:29:58.354Z,3.25
2018-10-12T14:32:28.192Z,2.75
2018-10-12T14:34:58.875Z,11.00
2018-10-12T14:37:35.931Z,7.00
2018-10-12T14:40:05.989Z,4.00
2018-10-12T14:42:35.521Z,3.00
2018-10-12T14:45:09.660Z,3.00
2018-10-12T14:47:42.765Z,3.00
2018-10-12T14:50:22.011Z,4.00
2018-10-12T14:52:56.514Z,3.00
2018-10-12T14:55:28.028Z,2.00
2018-10-12T14:58:00.721Z,3.75
2018-10-12T15:00:30.937Z,6.00
2018-10-12T15:03:01.251Z,4.00
2018-10-12T15:05:34.544Z,4.00
2018-10-12T15:08:04.169Z,4.75
2018-10-12T15:10:36.291Z,5.00
2018-10-12T15:15:38.610Z,2.75
2018-10-12T15:18:12.698Z,3.00
2018-10-12T15:20:42.675Z,4.00
2018-10-12T15:23:12.920Z,3.00
2018-10-12T15:25:43.573Z,3.50
2018-10-12T15:28:18.222Z,4.00
2018-10-12T15:30:50.772Z,5.75
2018-10-12T15:33:20.345Z,3.00
2018-10-12T15:35:50.424Z,3.00
2018-10-12T15:38:20.494Z,4.25
2018-10-12T15:40:52.304Z,3.00
2018-10-12T15:43:21.789Z,3.00
2018-10-12T15:45:57.865Z,2.50
2018-10-12T15:48:32.102Z,4.50
2018-10-12T15:51:01.981Z,3.00
2018-10-12T15:53:32.552Z,4.00
2018-10-12T15:56:03.737Z,3.00
2018-10-12T15:58:34.894Z,3.25
2018-10-12T16:01:05.677Z,3.00
2018-10-12T16:03:36.019Z,3.00
2018-10-12T16:06:08.245Z,4.00
2018-10-12T16:08:39.356Z,3.00
2018-10-12T16:11:10.092Z,4.00
2018-10-12T16:13:44.939Z,3.75
2018-10-12T16:16:16.737Z,4.25
2018-10-12T16:18:46.328Z,3.00
2018-10-12T16:21:17.129Z,3.00
2018-10-12T16:23:52.028Z,4.00
2018-10-12T16:26:23.670Z,3.00
2018-10-12T16:28:54.557Z,4.25
2018-10-12T16:31:24.836Z,3.25
2018-10-12T16:33:54.735Z,3.50
2018-10-12T16:36:24.106Z,4.00
2018-10-12T16:38:56.096Z,3.25
2018-10-12T16:41:25.514Z,3.25
2018-10-12T16:43:54.892Z,3.50
2018-10-12T16:46:24.997Z,3.75
2018-10-12T16:48:57.500Z,4.00
2018-10-12T16:51:31.919Z,4.00
2018-10-12T16:54:07.646Z,4.00
2018-10-12T16:56:43.753Z,3.50
2018-10-12T16:59:15.310Z,4.00
2018-10-12T17:01:45.919Z,4.50
2018-10-12T17:04:17.107Z,4.50
2018-10-12T17:06:47.292Z,4.50
2018-10-12T17:09:22.235Z,3.75
2018-10-12T17:11:52.557Z,5.25
2018-10-12T17:14:23.202Z,4.25
2018-10-12T17:16:56.426Z,8.25
2018-10-12T17:19:26.792Z,4.75
2018-10-12T17:21:58.461Z,6.00
2018-10-12T17:24:29.310Z,4.50
2018-10-12T17:26:59.383Z,8.50
2018-10-12T17:29:31.011Z,5.00
2018-10-12T17:32:02.669Z,6.75
2018-10-12T17:34:35.111Z,5.75
2018-10-12T17:37:07.007Z,6.00
2018-10-12T17:39:36.430Z,6.75
2018-10-12T17:42:13.397Z,5.75
2018-10-12T17:44:58.145Z,5.50
2018-10-12T17:47:29.691Z,5.50
2018-10-12T17:50:07.344Z,4.75
2018-10-12T17:52:39.599Z,5.75
2018-10-12T17:55:17.599Z,5.50
2018-10-12T17:57:50.461Z,5.75
2018-10-12T18:00:31.219Z,5.25
2018-10-12T18:03:04.344Z,4.50
2018-10-12T18:05:35.585Z,6.25
2018-10-12T18:08:06.503Z,6.25
2018-10-12T18:10:37.858Z,5.50
2018-10-12T18:13:11.342Z,4.25
2018-10-12T18:15:46.607Z,5.25
2018-10-12T18:18:17.667Z,6.25
2018-10-12T18:20:49.317Z,6.00
2018-10-12T18:23:18.793Z,6.25
2018-10-12T18:25:50.079Z,5.25
2018-10-12T18:28:20.578Z,6.00
2018-10-12T18:30:52.632Z,5.25
2018-10-12T18:33:23.811Z,5.25
2018-10-12T18:35:55.832Z,6.25
2018-10-12T18:38:25.880Z,6.25
2018-10-12T18:41:03.316Z,6.75
2018-10-12T18:43:33.435Z,7.25
2018-10-12T18:46:05.161Z,7.00
2018-10-12T18:48:35.356Z,7.50
2018-10-12T18:51:10.956Z,7.00
2018-10-12T18:53:44.245Z,6.00
2018-10-12T18:56:18.646Z,7.75
2018-10-12T18:58:50.712Z,9.75
2018-10-12T19:01:22.101Z,8.75
2018-10-12T19:03:54.175Z,15.25
2018-10-12T19:06:28.906Z,8.75
2018-10-12T19:09:05.615Z,7.00
2018-10-12T19:11:55.063Z,6.75
2018-10-12T19:14:25.748Z,9.00
2018-10-12T19:16:56.598Z,8.00
2018-10-12T19:19:40.768Z,10.25
2018-10-12T19:22:18.467Z,8.25
2018-10-12T19:24:58.241Z,7.75
2018-10-12T19:27:39.426Z,8.00
2018-10-12T19:30:17.689Z,9.00
2018-10-12T19:32:59.740Z,8.50
2018-10-12T19:35:30.769Z,10.25
2018-10-12T19:38:15.468Z,8.00
2018-10-12T19:40:49.429Z,9.25
2018-10-12T19:43:20.545Z,10.00
2018-10-12T19:45:52.905Z,9.50
2018-10-12T19:48:39.634Z,10.00
2018-10-12T19:51:11.313Z,11.50
2018-10-12T19:56:15.673Z,8.75
2018-10-12T19:58:53.572Z,10.00
2018-10-12T20:01:32.244Z,9.75
2018-10-12T20:04:02.555Z,11.75
2018-10-12T20:06:35.142Z,10.00
2018-10-12T20:09:12.856Z,11.00
2018-10-12T20:11:52.944Z,10.00
2018-10-12T20:14:24.078Z,9.00
2018-10-12T20:16:59.326Z,10.00
2018-10-12T20:19:29.350Z,10.00
2018-10-12T20:22:00.604Z,9.75
2018-10-12T20:24:31.436Z,10.75
2018-10-12T20:27:02.593Z,11.25
2018-10-12T20:29:32.278Z,11.00
2018-10-12T20:32:06.627Z,11.00
2018-10-12T20:34:45.452Z,10.75
2018-10-12T20:37:20.346Z,9.50
2018-10-12T20:39:50.782Z,9.25
2018-10-12T20:42:21.731Z,9.50
2018-10-12T20:44:52.285Z,9.00
2018-10-12T20:47:28.444Z,8.75
2018-10-12T20:49:59.989Z,10.00
2018-10-12T20:52:33.142Z,10.00
2018-10-12T20:55:03.358Z,10.00
2018-10-12T20:57:34.842Z,9.75
2018-10-12T21:00:08.497Z,9.25
2018-10-12T21:02:40.576Z,9.00
2018-10-12T21:05:11.959Z,9.25
2018-10-12T21:07:41.689Z,10.00
2018-10-12T21:10:12.638Z,8.75
2018-10-12T21:12:45.920Z,8.75
2018-10-12T21:15:17.229Z,9.00
2018-10-12T21:17:47.440Z,9.25
2018-10-12T21:20:17.317Z,9.00
2018-10-12T21:22:51.073Z,9.00
2018-10-12T21:25:23.059Z,8.00
2018-10-12T21:27:58.423Z,8.50
2018-10-12T21:30:31.014Z,7.00
2018-10-12T21:33:02.896Z,7.50
2018-10-12T21:35:33.521Z,8.50
2018-10-12T21:38:05.372Z,8.25
2018-10-12T21:40:36.775Z,9.00
2018-10-12T21:43:11.465Z,8.00
2018-10-12T21:45:42.158Z,9.50
2018-10-12T21:48:13.880Z,9.75
2018-10-12T21:50:43.374Z,8.00
2018-10-12T21:53:13.422Z,9.25
2018-10-12T21:55:43.870Z,9.00
2018-10-12T21:58:13.847Z,8.75
2018-10-12T22:00:46.715Z,8.50
2018-10-12T22:03:17.238Z,9.00
2018-10-12T22:05:54.703Z,8.00
2018-10-12T22:17:10.295Z,9.00
2018-10-12T22:19:50.598Z,9.25
2018-10-12T22:22:31.903Z,8.00
2018-10-12T22:25:01.686Z,8.00
2018-10-12T22:27:36.965Z,8.75
2018-10-12T22:30:22.766Z,7.75
2018-10-12T22:32:53.878Z,8.75
2018-10-12T22:35:24.406Z,10.00
2018-10-12T22:37:53.971Z,8.00
2018-10-12T22:40:23.992Z,7.25
2018-10-12T22:42:55.747Z,8.00
2018-10-12T22:45:29.334Z,8.50
2018-10-12T22:47:59.713Z,7.75
2018-10-12T22:50:31.911Z,7.00
2018-10-12T22:53:02.242Z,8.00
2018-10-12T22:55:32.407Z,7.75
2018-10-12T22:58:04.382Z,7.25
2018-10-12T23:00:38.432Z,8.00
2018-10-12T23:03:11.064Z,8.00
2018-10-12T23:05:56.603Z,8.75
2018-10-12T23:08:28.035Z,7.00
2018-10-12T23:11:03.196Z,7.75
2018-10-12T23:13:33.739Z,8.00
2018-10-12T23:16:04.349Z,8.25
2018-10-12T23:18:52.447Z,8.00
2018-10-12T23:21:24.046Z,9.00
2018-10-12T23:23:54.491Z,9.00
2018-10-12T23:26:24.803Z,8.25
2018-10-12T23:28:58.262Z,8.00
2018-10-12T23:31:32.239Z,8.00
2018-10-12T23:34:12.646Z,7.75
2018-10-12T23:36:44.098Z,10.00
2018-10-12T23:41:53.601Z,8.00
2018-10-12T23:44:28.389Z,8.00
2018-10-12T23:47:01.724Z,8.75
2018-10-12T23:49:35.123Z,9.00
2018-10-12T23:54:45.947Z,9.00
2018-10-12T23:57:18.549Z,8.00
2018-10-12T23:59:52.338Z,8.00
